Detalii statie TRANSAVIA GRUP [00001CF7]

Toti senzorii

Date Temperatura solului [C]Precipitatii [mm]Voltaj baterie [mV]HC Air temperature [C]HC Relative humidity [%]Punctul de roua [C]
medieminmaxsumaultimamedieminmaxmediemediemin
2019-04-19 19:00:00 9.7 9.6 9.9 0 6922 14.95 13.94 16.06 2.54 -8.5 0
2019-04-19 20:00:00 9.8 9.8 9.9 0 6922 13.85 13.51 14.19 1.4 -9.5 0
2019-04-19 21:00:00 9.8 9.7 9.9 0 6914 13.1 12.58 13.5 2.75 -7 0
2019-04-19 22:00:00 9.7 9.7 9.8 0 6884 11.44 10.71 12.44 6.48 -4.9 0
2019-04-19 23:00:00 9.6 9.5 9.8 0 6874 9.43 8.72 10.46 16.56 -17.8 -37.6
2019-04-20 00:00:00 9.6 9.6 9.7 0 6864 7.2 6.05 8.72 3.37 -2.2 0
2019-04-20 01:00:00 9.5 9.3 9.7 0 6844 4.53 3.43 5.91 0 0 0
2019-04-20 02:00:00 9.3 9.2 9.5 0 6826 2.71 1.78 3.21 0.4 0
2019-04-20 03:00:00 9.2 9.1 9.3 0 6816 1.71 0.84 2.41 0 0 0
2019-04-20 04:00:00 9 8.9 9.2 0 6816 0.32 -0.75 1.07 0 0 0
2019-04-20 05:00:00 8.8 8.7 9.1 0 6796 -1.05 -1.7 -0.55 0 0 0
2019-04-20 06:00:00 8.7 8.6 8.8 0 6796 -1.74 -2.14 -1.29 0 0 0
2019-04-20 07:00:00 8.4 8.3 8.6 0 6854 0.16 -1.86 1.92 0 0 0
2019-04-20 08:00:00 8.3 8.2 8.5 0 7040 5.05 2.1 8.17 0 0 0
2019-04-20 09:00:00 8.2 8.2 8.4 0 7314 10.13 8.58 11.61 0.04 0 0
2019-04-20 10:00:00 8.2 8.1 8.4 0 7314 11.98 11.22 12.79 60.98 4.4 0.6
2019-04-20 11:00:00 8.3 8.2 8.5 0 7236 13.37 12.29 14.67 81.71 10.1 7.5
2019-04-20 12:00:00 8.5 8.4 8.7 0 7254 13.46 12.71 14.72 81.13 10.1 8.8
2019-04-20 13:00:00 8.8 8.7 8.9 0 7284 14.19 12.58 15.63 61.83 6.6 4.7
2019-04-20 14:00:00 9 8.9 9.2 0 7264 14.48 13.55 15.85 47.15 3 0.6
2019-04-20 15:00:00 9.3 9.1 9.5 0 7324 15.04 13.85 16.01 49.6 4.4 3.5
2019-04-20 16:00:00 9.4 9.3 9.7 0 7050 15.99 15.27 16.86 44.51 3.6 1.8
2019-04-20 17:00:00 9.5 9.5 9.7 0 7128 15.55 15.36 15.86 44.17 3.2 1.5
2019-04-20 18:00:00 9.7 9.6 9.8 0 6972 14.97 13.93 15.69 44.21 2.7 2.1
2019-04-20 19:00:00 9.8 9.7 9.9 0 6932 13.27 11.47 14.09 51.13 3.2 2.2
2019-04-20 20:00:00 9.8 9.7 10 0 6922 8.08 6.29 10.52 67.76 2.2 1.8
2019-04-20 21:00:00 9.7 9.5 9.9 0 6904 5.03 3.96 5.91 80.05 1.7 1.1
2019-04-20 22:00:00 9.6 9.5 9.7 0 6884 3.03 2.16 4.44 87.07 0.9 0.4
2019-04-20 23:00:00 9.4 9.2 9.7 0 6864 1.55 1.11 2.03 94.04 0.5 0.2
2019-04-21 00:00:00 9.2 9.2 9.4 0 6854 0.43 -0.53 1.05 99.94 0.4 -0.4
2019-04-21 01:00:00 9 9 9.2 0 6826 -0.33 -0.84 0.06 100 -0.2 -0.7
2019-04-21 02:00:00 8.8 8.7 9 0 6826 -1.22 -1.8 -0.64 100 -1 -1.7
2019-04-21 03:00:00 8.7 8.6 8.9 0 6806 -0.9 -1.75 -0.51 100 -0.7 -1.6
2019-04-21 04:00:00 8.5 8.4 8.7 0 6806 -0.53 -0.9 -0.18 100 -0.3 -0.8
2019-04-21 05:00:00 8.3 8.3 8.5 0 6786 0.19 -0.69 1.47 45.68 -6.3 0
2019-04-21 06:00:00 8.2 8.2 8.4 0 6786 1.58 1.01 1.83 2.6 0
2019-04-21 07:00:00 8.1 8.1 8.3 0 6834 3.77 2.28 4.8 1.93 -10.4 0
2019-04-21 08:00:00 8.1 8 8.3 0 7040 7.23 5.05 10.27 82.85 6.2 0
2019-04-21 09:00:00 8.1 8.1 8.2 0 7264 12.76 10.81 14.22 58 4.1 0.4
2019-04-21 10:00:00 8.2 8.1 8.4 0 7304 15.23 14.24 15.81 37.96 0.7 -1.4
2019-04-21 11:00:00 8.3 8.2 8.5 0 7226 15.81 15.05 16.68 36.83 0.8 -0.6
2019-04-21 12:00:00 8.5 8.4 8.8 0 7314 15.78 15.38 16.37 27.89 -2.8 -4.2
2019-04-21 13:00:00 8.7 8.6 8.8 0 7314 18.38 16.89 19.82 23.12 -3.3 -4.8
2019-04-21 14:00:00 8.9 8.7 9 0 7314 19.18 18.55 19.74 22.57 -2.8 -4.1
2019-04-21 15:00:00 9.2 9.1 9.4 0 7304 19.09 18.63 19.73 23.88 -2.2 -3.1
2019-04-21 16:00:00 9.4 9.3 9.6 0 7304 19.39 18.63 19.93 24.08 -1.8 -2.6
2019-04-21 17:00:00 9.5 9.5 9.7 0 6992 18.57 17.04 19.42 25.7 -1.5 -2.1
2019-04-21 18:00:00 9.7 9.5 9.8 0 6952 16.02 15.19 16.85 34.84 0.2 -1.2